Time;durP1;ratioP1;P1;durP2;ratioP2;P2;SDS_P1;SDS_P2;PMS_P1;PMS_P2;Temp;Humidity;BMP_temperature;BMP_pressure;BME280_temperature;BME280_humidity;BME280_pressure;Samples;Min_cycle;Max_cycle;Signal;HPM_P1;HPM_P2
2021/01/29 00:01:26;;;;;;;14.63;9.93;;;;;;;;;;5086708;28;20055;-55
2021/01/29 00:03:51;;;;;;;16.87;10.40;;;;;;;;;;5084892;28;20459;-55
2021/01/29 00:06:16;;;;;;;14.03;9.27;;;;;;;;;;5081221;28;20031;-56
2021/01/29 00:08:41;;;;;;;12.70;8.57;;;;;;;;;;5084841;28;20027;-54
2021/01/29 00:11:07;;;;;;;13.67;8.90;;;;;;;;;;5083425;28;20458;-55
2021/01/29 00:13:32;;;;;;;13.30;8.37;;;;;;;;;;5083532;28;20115;-51
2021/01/29 00:15:57;;;;;;;14.60;9.53;;;;;;;;;;5080869;28;20024;-57
2021/01/29 00:18:23;;;;;;;13.97;8.90;;;;;;;;;;5085525;28;20028;-55
2021/01/29 00:20:48;;;;;;;11.83;8.17;;;;;;;;;;5086698;28;20031;-56
2021/01/29 00:23:14;;;;;;;10.17;7.13;;;;;;;;;;5083379;28;20028;-49
2021/01/29 00:25:42;;;;;;;11.40;8.10;;;;;;;;;;5081658;28;20024;-55
2021/01/29 00:28:07;;;;;;;11.83;8.20;;;;;;;;;;5085097;28;20106;-54
2021/01/29 00:30:33;;;;;;;13.83;8.93;;;;;;;;;;5084284;28;20103;-51
2021/01/29 00:32:59;;;;;;;13.20;8.60;;;;;;;;;;5091443;28;20193;-57
2021/01/29 00:35:26;;;;;;;11.47;8.17;;;;;;;;;;5087629;28;20240;-54
2021/01/29 00:37:52;;;;;;;11.53;7.90;;;;;;;;;;5085945;28;20028;-53
2021/01/29 00:40:17;;;;;;;11.60;8.10;;;;;;;;;;5085451;28;20016;-53
2021/01/29 00:42:42;;;;;;;13.43;9.00;;;;;;;;;;5086771;28;20027;-56
2021/01/29 00:45:09;;;;;;;12.33;8.50;;;;;;;;;;5081747;28;20739;-54
2021/01/29 00:47:34;;;;;;;12.03;8.00;;;;;;;;;;5082912;28;20548;-56
2021/01/29 00:49:59;;;;;;;13.37;8.87;;;;;;;;;;5083617;28;20264;-52
2021/01/29 00:52:25;;;;;;;12.40;8.83;;;;;;;;;;5083976;28;20016;-55
2021/01/29 00:54:50;;;;;;;14.47;9.07;;;;;;;;;;5082763;28;20031;-56
2021/01/29 00:57:15;;;;;;;10.87;7.57;;;;;;;;;;5083360;28;20024;-55
2021/01/29 00:59:41;;;;;;;9.87;6.73;;;;;;;;;;5082924;28;20383;-57
2021/01/29 01:02:06;;;;;;;10.67;7.93;;;;;;;;;;5084503;28;20363;-57
2021/01/29 01:04:31;;;;;;;13.80;8.83;;;;;;;;;;5088133;28;20019;-56
2021/01/29 01:06:56;;;;;;;15.03;10.00;;;;;;;;;;5082227;28;20020;-56
2021/01/29 01:09:22;;;;;;;14.97;10.30;;;;;;;;;;5087131;28;20027;-55
2021/01/29 01:11:47;;;;;;;16.10;10.83;;;;;;;;;;5089661;28;20020;-54
2021/01/29 01:14:13;;;;;;;17.07;10.73;;;;;;;;;;5088532;28;20486;-53
2021/01/29 01:16:38;;;;;;;14.73;9.93;;;;;;;;;;5084518;28;20039;-52
2021/01/29 01:19:03;;;;;;;15.40;10.33;;;;;;;;;;5086866;28;20036;-56
2021/01/29 01:21:28;;;;;;;15.40;10.13;;;;;;;;;;5088985;28;20032;-54
2021/01/29 01:23:53;;;;;;;16.63;10.77;;;;;;;;;;5088609;28;20008;-53
2021/01/29 01:26:19;;;;;;;15.37;10.33;;;;;;;;;;5081308;28;20012;-54
2021/01/29 01:28:44;;;;;;;16.70;10.97;;;;;;;;;;5089120;28;20040;-51
2021/01/29 01:31:09;;;;;;;18.13;11.43;;;;;;;;;;5095380;28;20017;-52
2021/01/29 01:33:35;;;;;;;20.13;11.83;;;;;;;;;;5095184;28;20016;-56
2021/01/29 01:36:00;;;;;;;14.83;9.60;;;;;;;;;;5089913;28;20058;-56
2021/01/29 01:38:25;;;;;;;15.20;9.73;;;;;;;;;;5089780;28;20374;-48
2021/01/29 01:40:50;;;;;;;15.43;10.00;;;;;;;;;;5085903;28;20369;-55
2021/01/29 01:43:16;;;;;;;17.10;10.33;;;;;;;;;;5085485;28;20497;-51
2021/01/29 01:45:51;;;;;;;18.43;11.73;;;;;;;;;;5083711;28;20012;-55
2021/01/29 01:48:23;;;;;;;18.20;11.67;;;;;;;;;;5087739;28;20055;-51
2021/01/29 01:50:49;;;;;;;17.87;10.67;;;;;;;;;;5084361;28;20038;-56
2021/01/29 01:53:20;;;;;;;20.87;11.70;;;;;;;;;;5088256;28;20016;-57
2021/01/29 01:55:45;;;;;;;18.90;11.90;;;;;;;;;;5085480;28;20023;-55
2021/01/29 01:58:11;;;;;;;23.07;13.00;;;;;;;;;;5085006;28;20038;-55
2021/01/29 02:00:36;;;;;;;23.63;14.20;;;;;;;;;;5088429;28;20046;-55
2021/01/29 02:03:05;;;;;;;22.73;13.93;;;;;;;;;;5089780;28;20577;-55
2021/01/29 02:05:35;;;;;;;22.40;13.30;;;;;;;;;;5082037;28;20012;-56
2021/01/29 02:08:03;;;;;;;22.33;13.10;;;;;;;;;;5084007;28;20371;-56
2021/01/29 02:10:29;;;;;;;21.90;13.30;;;;;;;;;;5089091;28;20022;-57
2021/01/29 02:12:55;;;;;;;21.67;12.33;;;;;;;;;;5087446;28;20594;-50
2021/01/29 02:15:23;;;;;;;23.57;13.57;;;;;;;;;;5083969;28;20047;-55
2021/01/29 02:17:48;;;;;;;23.70;13.40;;;;;;;;;;5087366;28;20028;-55
2021/01/29 02:20:39;;;;;;;21.70;13.40;;;;;;;;;;5084779;28;20012;-55
2021/01/29 02:23:20;;;;;;;19.03;11.47;;;;;;;;;;5084979;28;20021;-52
2021/01/29 02:25:57;;;;;;;24.07;13.80;;;;;;;;;;5082442;28;20016;-56
2021/01/29 02:28:41;;;;;;;22.03;13.00;;;;;;;;;;5086474;28;20040;-53
2021/01/29 02:31:09;;;;;;;23.70;14.07;;;;;;;;;;5092781;28;20024;-51
2021/01/29 02:33:52;;;;;;;26.40;14.40;;;;;;;;;;5094375;28;20457;-55
2021/01/29 02:36:23;;;;;;;20.40;12.27;;;;;;;;;;5086686;28;21679;-54
2021/01/29 02:38:49;;;;;;;18.63;11.50;;;;;;;;;;5084917;28;20048;-55
2021/01/29 02:41:23;;;;;;;21.77;13.57;;;;;;;;;;5088421;28;20073;-52
2021/01/29 02:43:58;;;;;;;19.43;11.90;;;;;;;;;;5086109;28;20460;-55
2021/01/29 02:46:34;;;;;;;18.40;11.47;;;;;;;;;;5081956;28;20176;-51
2021/01/29 02:49:00;;;;;;;17.23;10.80;;;;;;;;;;5083553;28;20035;-57
2021/01/29 02:51:31;;;;;;;16.17;10.33;;;;;;;;;;5086423;28;20394;-52
2021/01/29 02:54:05;;;;;;;21.47;12.00;;;;;;;;;;5088609;28;20558;-56
2021/01/29 02:56:31;;;;;;;18.67;11.40;;;;;;;;;;5081368;28;20386;-55
2021/01/29 02:59:05;;;;;;;20.13;12.40;;;;;;;;;;5083976;28;20020;-55
2021/01/29 03:01:38;;;;;;;20.92;11.65;;;;;;;;;;5086606;28;20020;-56
2021/01/29 03:04:10;;;;;;;19.93;11.90;;;;;;;;;;5085520;28;20013;-52
2021/01/29 03:06:38;;;;;;;20.53;12.10;;;;;;;;;;5082995;28;20032;-53
2021/01/29 03:09:10;;;;;;;23.63;12.73;;;;;;;;;;5086244;28;20052;-53
2021/01/29 03:11:40;;;;;;;21.10;12.10;;;;;;;;;;5087677;28;20046;-54
2021/01/29 03:14:08;;;;;;;22.13;12.43;;;;;;;;;;5090591;28;20388;-55
2021/01/29 03:17:02;;;;;;;21.90;13.03;;;;;;;;;;5090043;28;20020;-48
2021/01/29 03:19:51;;;;;;;19.43;11.23;;;;;;;;;;5067683;28;20174;-55
2021/01/29 03:22:31;;;;;;;24.40;13.40;;;;;;;;;;5087092;28;20479;-52
2021/01/29 03:25:01;;;;;;;21.03;12.30;;;;;;;;;;5083480;28;20024;-53
2021/01/29 03:27:29;;;;;;;18.40;11.53;;;;;;;;;;5085554;28;20078;-52
2021/01/29 03:29:57;;;;;;;20.53;12.00;;;;;;;;;;5084963;28;20064;-51
2021/01/29 03:32:23;;;;;;;17.80;11.10;;;;;;;;;;5087173;28;20035;-54
2021/01/29 03:34:53;;;;;;;25.70;14.13;;;;;;;;;;5090193;28;20406;-54
2021/01/29 03:37:22;;;;;;;22.23;12.90;;;;;;;;;;5090485;28;20054;-52
2021/01/29 03:39:48;;;;;;;18.23;11.40;;;;;;;;;;5090222;28;20043;-53
2021/01/29 03:42:21;;;;;;;19.33;12.17;;;;;;;;;;5087796;28;20016;-53
2021/01/29 03:44:53;;;;;;;21.57;11.83;;;;;;;;;;5089327;28;20024;-57
2021/01/29 03:47:26;;;;;;;18.10;11.37;;;;;;;;;;5086659;28;20040;-54
2021/01/29 03:50:01;;;;;;;20.17;11.60;;;;;;;;;;5087467;28;20119;-55
2021/01/29 03:52:28;;;;;;;19.90;10.53;;;;;;;;;;5084931;28;20020;-51
2021/01/29 03:55:12;;;;;;;21.93;12.67;;;;;;;;;;5088179;28;20502;-54
2021/01/29 03:57:51;;;;;;;22.30;12.93;;;;;;;;;;5085489;28;20120;-54
2021/01/29 04:00:22;;;;;;;23.77;12.67;;;;;;;;;;5086556;28;20020;-54
2021/01/29 04:03:03;;;;;;;22.97;12.27;;;;;;;;;;5086787;28;20024;-56
2021/01/29 04:05:37;;;;;;;19.57;11.47;;;;;;;;;;5081213;28;20474;-56
2021/01/29 04:08:11;;;;;;;21.10;11.63;;;;;;;;;;5085853;28;20031;-57
2021/01/29 04:10:36;;;;;;;20.80;12.13;;;;;;;;;;5086476;28;20467;-55
2021/01/29 04:13:13;;;;;;;21.53;11.77;;;;;;;;;;5083808;28;20046;-54
2021/01/29 04:15:51;;;;;;;18.90;10.53;;;;;;;;;;5078524;28;20032;-54
2021/01/29 04:18:34;;;;;;;18.33;11.30;;;;;;;;;;5084705;28;20024;-55
2021/01/29 04:21:18;;;;;;;22.10;13.50;;;;;;;;;;5084310;28;20055;-54
2021/01/29 04:23:50;;;;;;;16.77;9.93;;;;;;;;;;5086071;28;20051;-56
2021/01/29 04:26:20;;;;;;;19.63;10.87;;;;;;;;;;5084111;28;20020;-56
2021/01/29 04:28:47;;;;;;;20.03;11.33;;;;;;;;;;5085765;28;20040;-56
2021/01/29 04:31:14;;;;;;;16.97;9.57;;;;;;;;;;5083353;28;20150;-50
2021/01/29 04:33:42;;;;;;;19.87;11.17;;;;;;;;;;5086343;28;20028;-54
2021/01/29 04:36:09;;;;;;;17.83;9.83;;;;;;;;;;5081883;28;20025;-55
2021/01/29 04:38:34;;;;;;;19.50;11.07;;;;;;;;;;5087465;28;20482;-54
2021/01/29 04:41:18;;;;;;;22.30;11.63;;;;;;;;;;5090350;28;20023;-54
2021/01/29 04:44:02;;;;;;;22.20;11.67;;;;;;;;;;5088212;28;20098;-54
2021/01/29 04:46:46;;;;;;;17.93;10.43;;;;;;;;;;5085934;28;20019;-52
2021/01/29 04:49:19;;;;;;;17.80;10.37;;;;;;;;;;5089722;28;20066;-56
2021/01/29 04:52:03;;;;;;;17.70;10.30;;;;;;;;;;5088141;28;20034;-54
2021/01/29 04:54:39;;;;;;;18.63;10.23;;;;;;;;;;5081439;28;20032;-54
2021/01/29 04:57:22;;;;;;;19.93;11.77;;;;;;;;;;5085646;28;20024;-52
2021/01/29 05:00:06;;;;;;;19.77;11.23;;;;;;;;;;5087607;28;20016;-50
2021/01/29 05:02:31;;;;;;;20.07;11.07;;;;;;;;;;5088899;28;20039;-52
2021/01/29 05:05:15;;;;;;;21.97;11.53;;;;;;;;;;5086996;28;20365;-54
2021/01/29 05:07:43;;;;;;;18.00;10.40;;;;;;;;;;5088064;28;20043;-53
2021/01/29 05:10:08;;;;;;;18.80;10.50;;;;;;;;;;5089089;28;20526;-56
2021/01/29 05:12:46;;;;;;;20.60;10.70;;;;;;;;;;5090849;28;20106;-54
2021/01/29 05:15:11;;;;;;;23.10;12.53;;;;;;;;;;5085666;28;20036;-53
2021/01/29 05:17:55;;;;;;;21.93;12.20;;;;;;;;;;5088019;28;20020;-56
2021/01/29 05:20:26;;;;;;;25.30;12.93;;;;;;;;;;5085004;28;20012;-55
2021/01/29 05:22:56;;;;;;;21.23;11.53;;;;;;;;;;5089343;28;20035;-57
2021/01/29 05:25:40;;;;;;;20.87;11.33;;;;;;;;;;5083923;28;20340;-50
2021/01/29 05:28:24;;;;;;;22.00;12.73;;;;;;;;;;5089889;28;20133;-58
2021/01/29 05:31:04;;;;;;;21.33;11.93;;;;;;;;;;5088434;28;20034;-52
2021/01/29 05:33:32;;;;;;;22.63;12.23;;;;;;;;;;5086381;28;20057;-55
2021/01/29 05:35:58;;;;;;;19.57;11.37;;;;;;;;;;5085480;28;20430;-56
2021/01/29 05:38:40;;;;;;;20.47;11.23;;;;;;;;;;5088561;28;20048;-57
2021/01/29 05:41:25;;;;;;;21.57;12.30;;;;;;;;;;5088225;28;20016;-54
2021/01/29 05:43:56;;;;;;;21.33;11.63;;;;;;;;;;5086475;28;20052;-53
2021/01/29 05:46:30;;;;;;;21.40;12.10;;;;;;;;;;5082745;28;20028;-54
2021/01/29 05:49:12;;;;;;;21.80;12.53;;;;;;;;;;5089634;28;20024;-52
2021/01/29 05:51:43;;;;;;;18.37;11.20;;;;;;;;;;5089845;28;20301;-55
2021/01/29 05:54:08;;;;;;;18.70;10.93;;;;;;;;;;5087797;28;20028;-55
2021/01/29 05:56:45;;;;;;;19.87;11.43;;;;;;;;;;5084567;28;20487;-52
2021/01/29 05:59:13;;;;;;;18.23;11.00;;;;;;;;;;5086301;28;20020;-56
2021/01/29 06:01:49;;;;;;;18.53;10.87;;;;;;;;;;5086426;28;20043;-53
2021/01/29 06:04:33;;;;;;;18.20;10.33;;;;;;;;;;5089339;28;20094;-55
2021/01/29 06:07:17;;;;;;;15.50;9.33;;;;;;;;;;5084017;28;20378;-56
2021/01/29 06:09:48;;;;;;;17.47;10.20;;;;;;;;;;5087041;28;20020;-57
2021/01/29 06:12:13;;;;;;;20.47;11.03;;;;;;;;;;5083558;28;20049;-54
2021/01/29 06:14:53;;;;;;;16.77;10.17;;;;;;;;;;5087727;28;20028;-55
2021/01/29 06:17:24;;;;;;;19.17;10.33;;;;;;;;;;5087045;28;20069;-55
2021/01/29 06:19:59;;;;;;;17.97;10.37;;;;;;;;;;5085873;28;20024;-56
2021/01/29 06:22:44;;;;;;;14.15;8.43;;;;;;;;;;5089141;28;20330;-56
2021/01/29 06:25:25;;;;;;;19.23;10.43;;;;;;;;;;5070919;28;20261;-50
2021/01/29 06:28:11;;;;;;;21.40;11.67;;;;;;;;;;5087374;28;20143;-53
2021/01/29 06:30:42;;;;;;;16.27;9.73;;;;;;;;;;5083922;28;20027;-55
2021/01/29 06:33:16;;;;;;;19.67;10.40;;;;;;;;;;5087959;28;20024;-56
2021/01/29 06:36:00;;;;;;;19.80;10.37;;;;;;;;;;5084164;28;20497;-53
2021/01/29 06:38:35;;;;;;;21.10;11.30;;;;;;;;;;5087330;28;20050;-57
2021/01/29 06:41:03;;;;;;;19.23;10.38;;;;;;;;;;5088070;28;20424;-57
2021/01/29 06:43:29;;;;;;;18.77;9.83;;;;;;;;;;5085921;28;20035;-56
2021/01/29 06:45:57;;;;;;;18.73;10.30;;;;;;;;;;5085180;28;20023;-56
2021/01/29 06:48:45;;;;;;;17.83;10.73;;;;;;;;;;5089615;28;20048;-54
2021/01/29 06:51:16;;;;;;;21.10;11.60;;;;;;;;;;5078358;28;20043;-56
2021/01/29 06:53:54;;;;;;;20.10;11.57;;;;;;;;;;5086284;28;20351;-54
2021/01/29 06:56:31;;;;;;;18.80;10.80;;;;;;;;;;5082888;28;20020;-57
2021/01/29 06:58:56;;;;;;;17.30;9.80;;;;;;;;;;5086470;28;20023;-57
2021/01/29 07:01:33;;;;;;;18.23;10.60;;;;;;;;;;5086343;28;20013;-54
2021/01/29 07:04:18;;;;;;;17.67;9.87;;;;;;;;;;5088207;28;20431;-53
2021/01/29 07:07:02;;;;;;;18.52;9.93;;;;;;;;;;5077792;28;20031;-52
2021/01/29 07:09:30;;;;;;;17.20;10.30;;;;;;;;;;5085388;28;20431;-56
2021/01/29 07:12:13;;;;;;;18.50;10.37;;;;;;;;;;5087607;28;20055;-56
2021/01/29 07:14:41;;;;;;;17.20;9.37;;;;;;;;;;5085693;28;20027;-56
2021/01/29 07:17:12;;;;;;;16.03;9.07;;;;;;;;;;5080140;28;20020;-55
2021/01/29 07:19:40;;;;;;;17.70;10.20;;;;;;;;;;5083750;28;20039;-54
2021/01/29 07:22:17;;;;;;;14.90;9.10;;;;;;;;;;5083604;28;20371;-54
2021/01/29 07:24:55;;;;;;;17.23;9.50;;;;;;;;;;5084952;28;20052;-55
2021/01/29 07:27:20;;;;;;;16.47;9.37;;;;;;;;;;5082236;28;20478;-56
2021/01/29 07:29:51;;;;;;;18.30;8.97;;;;;;;;;;5085654;28;20039;-55
2021/01/29 07:32:16;;;;;;;16.33;9.07;;;;;;;;;;5087366;28;20016;-56
2021/01/29 07:34:54;;;;;;;15.10;8.83;;;;;;;;;;5089802;28;20023;-56
2021/01/29 07:37:19;;;;;;;15.37;8.80;;;;;;;;;;5085822;28;20024;-51
2021/01/29 07:39:55;;;;;;;14.27;8.60;;;;;;;;;;5086237;28;20012;-54
2021/01/29 07:42:38;;;;;;;14.57;8.17;;;;;;;;;;5084926;28;20023;-52
2021/01/29 07:45:04;;;;;;;13.83;8.23;;;;;;;;;;5081769;28;20012;-56
2021/01/29 07:47:48;;;;;;;12.80;8.50;;;;;;;;;;5084878;28;20012;-55
2021/01/29 07:50:16;;;;;;;13.20;7.43;;;;;;;;;;5087080;28;20020;-55
2021/01/29 07:52:52;;;;;;;11.03;6.90;;;;;;;;;;5088051;28;20012;-52
2021/01/29 07:55:25;;;;;;;11.27;7.03;;;;;;;;;;5079931;28;20038;-56
2021/01/29 07:58:05;;;;;;;10.93;7.17;;;;;;;;;;5083865;28;20235;-56
2021/01/29 08:00:36;;;;;;;10.80;7.00;;;;;;;;;;5082440;28;20016;-53
2021/01/29 08:03:21;;;;;;;12.93;7.33;;;;;;;;;;5087017;28;20069;-54
2021/01/29 08:06:02;;;;;;;13.30;8.43;;;;;;;;;;5082926;28;20040;-53
2021/01/29 08:08:30;;;;;;;14.27;7.60;;;;;;;;;;5085057;28;20028;-56
2021/01/29 08:10:58;;;;;;;10.70;7.23;;;;;;;;;;5085932;28;20028;-55
2021/01/29 08:13:23;;;;;;;11.47;7.23;;;;;;;;;;5072767;28;20410;-55
2021/01/29 08:16:00;;;;;;;9.83;6.87;;;;;;;;;;5071901;28;20038;-56
2021/01/29 08:18:37;;;;;;;13.00;7.37;;;;;;;;;;5092107;28;20301;-52
2021/01/29 08:21:21;;;;;;;10.63;8.00;;;;;;;;;;5092249;28;20430;-56
2021/01/29 08:24:05;;;;;;;10.10;6.37;;;;;;;;;;5092015;28;20022;-57
2021/01/29 08:26:31;;;;;;;10.20;6.67;;;;;;;;;;5089205;28;20382;-55
2021/01/29 08:28:59;;;;;;;11.30;6.53;;;;;;;;;;5091752;28;20119;-54
2021/01/29 08:31:27;;;;;;;11.27;5.93;;;;;;;;;;5091944;28;20103;-57
2021/01/29 08:33:55;;;;;;;7.13;5.00;;;;;;;;;;5092368;28;20103;-53
2021/01/29 08:36:31;;;;;;;8.43;4.80;;;;;;;;;;5084738;28;20012;-56
2021/01/29 08:38:59;;;;;;;6.50;4.50;;;;;;;;;;5091302;28;20106;-51
2021/01/29 08:41:43;;;;;;;5.90;3.93;;;;;;;;;;5092272;28;20042;-54
2021/01/29 08:44:13;;;;;;;5.63;4.33;;;;;;;;;;5092337;28;20012;-55
2021/01/29 08:47:07;;;;;;;5.57;3.67;;;;;;;;;;5085968;28;20035;-57
2021/01/29 08:49:50;;;;;;;4.40;2.70;;;;;;;;;;5027386;28;20408;-52
2021/01/29 08:52:21;;;;;;;6.67;5.13;;;;;;;;;;5010180;28;20045;-53
2021/01/29 08:54:49;;;;;;;3.90;3.10;;;;;;;;;;5009117;28;20030;-54
2021/01/29 08:57:17;;;;;;;7.10;2.80;;;;;;;;;;5007509;28;20026;-56
2021/01/29 08:59:43;;;;;;;3.43;2.40;;;;;;;;;;5009892;28;20061;-53
2021/01/29 09:02:08;;;;;;;4.13;2.50;;;;;;;;;;5010105;28;20362;-53
2021/01/29 09:04:33;;;;;;;3.30;2.20;;;;;;;;;;5009963;28;20026;-52
2021/01/29 09:07:00;;;;;;;3.60;2.40;;;;;;;;;;5008399;28;20048;-56
2021/01/29 09:09:28;;;;;;;3.40;2.17;;;;;;;;;;5028891;28;20026;-53
2021/01/29 09:11:55;;;;;;;3.40;2.10;;;;;;;;;;5027957;28;20398;-56
2021/01/29 09:14:28;;;;;;;3.33;2.10;;;;;;;;;;5018329;28;20519;-57
2021/01/29 09:16:59;;;;;;;3.27;2.50;;;;;;;;;;5021376;28;20025;-55
2021/01/29 09:19:24;;;;;;;2.70;2.00;;;;;;;;;;5029169;28;20104;-57
2021/01/29 09:22:09;;;;;;;2.50;1.90;;;;;;;;;;5029446;28;20479;-53
2021/01/29 09:24:40;;;;;;;2.37;2.00;;;;;;;;;;5022290;28;20036;-54
2021/01/29 09:27:05;;;;;;;3.17;1.80;;;;;;;;;;5081061;28;20040;-56
2021/01/29 09:29:35;;;;;;;2.80;2.03;;;;;;;;;;5087068;28;20077;-57
2021/01/29 09:32:03;;;;;;;3.03;2.03;;;;;;;;;;5095117;28;20012;-55
2021/01/29 09:34:43;;;;;;;3.80;2.10;;;;;;;;;;5095003;28;20474;-54
2021/01/29 09:37:10;;;;;;;3.03;2.13;;;;;;;;;;5092199;28;20026;-56
2021/01/29 09:39:54;;;;;;;3.83;2.73;;;;;;;;;;5093619;28;20082;-53
2021/01/29 09:42:39;;;;;;;4.43;2.60;;;;;;;;;;5095031;28;20021;-53
2021/01/29 09:45:06;;;;;;;2.67;2.03;;;;;;;;;;5068493;28;20028;-55
2021/01/29 09:47:39;;;;;;;3.03;1.83;;;;;;;;;;5083141;28;20024;-53
2021/01/29 09:50:05;;;;;;;3.10;1.52;;;;;;;;;;5094477;28;20016;-55
2021/01/29 09:52:51;;;;;;;1.67;1.43;;;;;;;;;;5090413;28;20031;-54
2021/01/29 09:55:19;;;;;;;2.72;1.95;;;;;;;;;;5091252;28;20074;-55
2021/01/29 09:57:57;;;;;;;1.87;1.47;;;;;;;;;;5094308;28;20024;-51
2021/01/29 10:00:28;;;;;;;4.72;2.00;;;;;;;;;;5074251;28;20028;-55
2021/01/29 10:03:03;;;;;;;3.63;1.80;;;;;;;;;;5090665;28;20467;-56
2021/01/29 10:05:32;;;;;;;3.27;2.20;;;;;;;;;;5090468;28;20047;-54
2021/01/29 10:08:12;;;;;;;2.70;1.85;;;;;;;;;;5094126;28;20016;-54
2021/01/29 10:10:44;;;;;;;1.90;1.47;;;;;;;;;;5094425;28;20493;-54
2021/01/29 10:13:16;;;;;;;2.15;1.15;;;;;;;;;;5094305;28;20038;-52
2021/01/29 10:15:42;;;;;;;4.07;1.75;;;;;;;;;;5091508;28;20077;-54
2021/01/29 10:18:23;;;;;;;2.00;1.30;;;;;;;;;;5075099;28;20024;-54
2021/01/29 10:20:50;;;;;;;2.33;1.58;;;;;;;;;;5078517;28;20016;-55
2021/01/29 10:23:21;;;;;;;1.98;1.23;;;;;;;;;;5093353;28;20528;-57
2021/01/29 10:26:05;;;;;;;2.55;1.60;;;;;;;;;;5090988;28;20061;-57
2021/01/29 10:28:59;;;;;;;2.33;1.52;;;;;;;;;;5080889;28;20047;-57
2021/01/29 10:31:24;;;;;;;2.58;1.35;;;;;;;;;;5076405;28;20043;-57
2021/01/29 10:34:00;;;;;;;2.60;1.30;;;;;;;;;;5093975;28;20028;-57
2021/01/29 10:36:27;;;;;;;;;;;;;;;;;;5070614;28;20414;-57
2021/01/29 10:38:52;;;;;;;2.63;1.38;;;;;;;;;;5082171;28;20393;-56
2021/01/29 10:41:24;;;;;;;2.13;0.88;;;;;;;;;;5094005;28;20044;-57
2021/01/29 10:43:55;;;;;;;3.25;0.88;;;;;;;;;;5092966;28;20020;-53
2021/01/29 10:46:38;;;;;;;2.08;0.90;;;;;;;;;;5085213;28;20028;-58
2021/01/29 10:49:09;;;;;;;3.28;1.13;;;;;;;;;;5093392;28;20415;-54
2021/01/29 10:51:43;;;;;;;1.60;0.70;;;;;;;;;;5093665;28;20024;-55
2021/01/29 10:54:09;;;;;;;2.43;0.70;;;;;;;;;;5089576;28;20062;-55
2021/01/29 10:56:57;;;;;;;1.55;0.85;;;;;;;;;;5086304;28;20020;-56
2021/01/29 10:59:26;;;;;;;1.53;0.53;;;;;;;;;;5076268;28;20039;-54
2021/01/29 11:02:00;;;;;;;2.15;0.60;;;;;;;;;;5071987;28;20019;-52
2021/01/29 11:04:39;;;;;;;1.10;0.52;;;;;;;;;;5086516;28;20024;-57
2021/01/29 11:07:06;;;;;;;1.23;0.53;;;;;;;;;;5089023;28;20368;-53
2021/01/29 11:09:33;;;;;;;1.45;0.68;;;;;;;;;;5092468;28;20024;-54
2021/01/29 11:12:05;;;;;;;1.17;0.50;;;;;;;;;;5073993;28;20020;-55
2021/01/29 11:14:33;;;;;;;1.57;0.73;;;;;;;;;;5089069;28;20033;-55
2021/01/29 11:17:02;;;;;;;3.70;0.93;;;;;;;;;;5080520;28;20036;-55
2021/01/29 11:19:35;;;;;;;1.80;0.70;;;;;;;;;;5092462;28;20020;-57
2021/01/29 11:22:00;;;;;;;1.33;0.60;;;;;;;;;;5087296;28;20023;-55
2021/01/29 11:24:32;;;;;;;2.10;0.70;;;;;;;;;;5092710;28;20016;-54
2021/01/29 11:27:16;;;;;;;1.60;0.80;;;;;;;;;;5085428;28;20115;-54
2021/01/29 11:29:59;;;;;;;1.37;0.60;;;;;;;;;;5091588;28;20039;-53
2021/01/29 11:32:27;;;;;;;2.10;1.20;;;;;;;;;;5093057;28;20048;-56
2021/01/29 11:35:08;;;;;;;2.30;0.90;;;;;;;;;;5089391;28;20410;-55
2021/01/29 11:37:42;;;;;;;2.37;0.83;;;;;;;;;;5080570;28;20071;-55
2021/01/29 11:40:13;;;;;;;2.13;1.23;;;;;;;;;;5076138;28;20020;-56
2021/01/29 11:43:05;;;;;;;3.77;1.67;;;;;;;;;;5092707;28;20736;-59
2021/01/29 11:45:32;;;;;;;6.20;3.00;;;;;;;;;;5089899;28;20020;-54
2021/01/29 11:48:21;;;;;;;3.03;2.10;;;;;;;;;;5092169;28;20024;-55
2021/01/29 11:51:05;;;;;;;3.00;1.77;;;;;;;;;;5092567;28;20099;-55
2021/01/29 11:53:39;;;;;;;2.67;1.43;;;;;;;;;;5091241;28;20034;-53
2021/01/29 11:56:09;;;;;;;3.07;1.00;;;;;;;;;;5089665;28;20065;-56
2021/01/29 11:58:43;;;;;;;3.13;1.57;;;;;;;;;;5092267;28;20024;-56
2021/01/29 12:01:30;;;;;;;4.15;1.98;;;;;;;;;;5092418;28;20020;-54
2021/01/29 12:04:09;;;;;;;5.13;2.17;;;;;;;;;;5091613;28;20030;-56
2021/01/29 12:06:38;;;;;;;2.70;1.50;;;;;;;;;;5085784;28;20023;-54
2021/01/29 12:09:06;;;;;;;2.20;1.17;;;;;;;;;;5091544;28;20016;-53
2021/01/29 12:11:44;;;;;;;3.10;1.33;;;;;;;;;;5091831;28;20024;-54
2021/01/29 12:14:29;;;;;;;2.75;1.60;;;;;;;;;;5092412;28;20020;-55
2021/01/29 12:16:57;;;;;;;2.47;1.00;;;;;;;;;;5080256;28;20120;-56
2021/01/29 12:19:34;;;;;;;3.45;1.77;;;;;;;;;;5072081;28;20251;-55
2021/01/29 12:22:08;;;;;;;2.90;1.27;;;;;;;;;;5079384;28;20024;-56
2021/01/29 12:24:36;;;;;;;4.22;2.08;;;;;;;;;;5090111;28;20019;-57
2021/01/29 12:27:05;;;;;;;3.70;1.83;;;;;;;;;;5084342;28;20100;-56
2021/01/29 12:29:40;;;;;;;2.22;1.10;;;;;;;;;;5091042;28;20521;-54
2021/01/29 12:32:06;;;;;;;3.15;1.33;;;;;;;;;;5091498;28;20027;-57
2021/01/29 12:34:34;;;;;;;2.83;1.30;;;;;;;;;;5091824;28;20043;-53
2021/01/29 12:36:59;;;;;;;2.72;1.48;;;;;;;;;;5087913;28;20197;-57
2021/01/29 12:39:27;;;;;;;6.00;3.33;;;;;;;;;;5090307;28;20035;-57
2021/01/29 12:42:09;;;;;;;4.22;1.35;;;;;;;;;;5090932;28;20378;-54
2021/01/29 12:44:40;;;;;;;1.77;1.00;;;;;;;;;;5085524;28;20382;-58
2021/01/29 12:47:15;;;;;;;1.80;1.20;;;;;;;;;;5088777;28;20024;-58
2021/01/29 12:49:47;;;;;;;2.00;1.47;;;;;;;;;;5091789;28;20023;-55
2021/01/29 12:52:20;;;;;;;3.95;1.58;;;;;;;;;;5071942;28;20501;-56
2021/01/29 12:54:56;;;;;;;3.43;1.87;;;;;;;;;;5070847;28;20028;-59
2021/01/29 12:57:23;;;;;;;3.83;2.10;;;;;;;;;;5070771;28;20609;-56
2021/01/29 13:00:08;;;;;;;4.33;2.17;;;;;;;;;;5083937;28;20099;-54
2021/01/29 13:02:52;;;;;;;3.28;2.22;;;;;;;;;;5091303;28;20462;-58
2021/01/29 13:05:36;;;;;;;3.97;2.23;;;;;;;;;;5086595;28;20070;-56
2021/01/29 13:08:19;;;;;;;4.73;2.50;;;;;;;;;;5094979;28;20020;-56
2021/01/29 13:10:50;;;;;;;3.90;3.10;;;;;;;;;;5075211;28;20014;-57
2021/01/29 13:13:39;;;;;;;4.27;2.73;;;;;;;;;;5092322;28;20016;-56
2021/01/29 13:16:07;;;;;;;4.37;1.87;;;;;;;;;;5071999;28;20048;-56
2021/01/29 13:18:42;;;;;;;5.37;2.50;;;;;;;;;;5087796;28;20052;-57
2021/01/29 13:21:09;;;;;;;6.75;3.58;;;;;;;;;;5075073;28;20096;-55
2021/01/29 13:23:38;;;;;;;5.90;4.10;;;;;;;;;;5091901;28;20035;-57
2021/01/29 13:26:09;;;;;;;1.70;0.77;;;;;;;;;;5092205;28;20070;-57
2021/01/29 13:28:39;;;;;;;3.33;1.77;;;;;;;;;;5094077;28;20560;-57
2021/01/29 13:31:12;;;;;;;5.22;4.57;;;;;;;;;;5094847;28;20046;-57
2021/01/29 13:33:43;;;;;;;4.68;3.47;;;;;;;;;;5091313;28;20027;-57
2021/01/29 13:36:20;;;;;;;5.82;3.53;;;;;;;;;;5086646;28;20078;-56
2021/01/29 13:38:45;;;;;;;5.65;3.53;;;;;;;;;;5093739;28;20074;-56
2021/01/29 13:41:13;;;;;;;7.15;4.65;;;;;;;;;;5094387;28;20016;-55
2021/01/29 13:43:41;;;;;;;6.65;5.00;;;;;;;;;;5088037;28;20051;-54
2021/01/29 13:46:15;;;;;;;7.03;4.90;;;;;;;;;;5088233;28;20091;-54
2021/01/29 13:48:40;;;;;;;7.33;4.00;;;;;;;;;;5088131;28;20039;-57
2021/01/29 13:51:22;;;;;;;4.23;2.00;;;;;;;;;;5091834;28;20494;-53
2021/01/29 13:53:48;;;;;;;5.40;3.73;;;;;;;;;;5082623;28;20486;-58
2021/01/29 13:56:25;;;;;;;8.90;5.03;;;;;;;;;;5083084;28;20016;-57
2021/01/29 13:58:57;;;;;;;0.97;0.50;;;;;;;;;;5087393;28;20027;-54
2021/01/29 14:01:30;;;;;;;4.50;3.03;;;;;;;;;;5089752;28;20016;-57
2021/01/29 14:03:59;;;;;;;3.17;1.97;;;;;;;;;;5088057;28;20020;-56
2021/01/29 14:06:28;;;;;;;2.10;1.40;;;;;;;;;;5091185;28;20035;-56
2021/01/29 14:08:53;;;;;;;2.47;1.57;;;;;;;;;;5093839;28;20020;-54
2021/01/29 14:11:27;;;;;;;2.97;1.80;;;;;;;;;;5093660;28;20454;-57
2021/01/29 14:14:13;;;;;;;2.17;1.17;;;;;;;;;;5077697;28;20386;-56
2021/01/29 14:16:54;;;;;;;1.35;0.90;;;;;;;;;;5063245;28;20024;-57
2021/01/29 14:19:24;;;;;;;1.63;1.20;;;;;;;;;;5079135;28;20016;-58
2021/01/29 14:22:01;;;;;;;0.55;0.47;;;;;;;;;;5093409;28;20099;-57
2021/01/29 14:24:38;;;;;;;1.73;0.73;;;;;;;;;;5091193;28;20012;-56
2021/01/29 14:27:22;;;;;;;1.10;0.73;;;;;;;;;;5090716;28;20334;-57
2021/01/29 14:29:53;;;;;;;2.08;1.67;;;;;;;;;;5089730;28;20077;-54
2021/01/29 14:32:18;;;;;;;0.73;0.47;;;;;;;;;;5086151;28;20498;-57
2021/01/29 14:34:46;;;;;;;3.63;1.77;;;;;;;;;;5087636;28;20023;-56
2021/01/29 14:37:24;;;;;;;4.18;2.95;;;;;;;;;;5083088;28;20047;-57
2021/01/29 14:39:49;;;;;;;2.58;1.75;;;;;;;;;;5082408;28;20012;-56
2021/01/29 14:42:23;;;;;;;4.78;2.45;;;;;;;;;;5086121;28;20413;-56
2021/01/29 14:45:07;;;;;;;5.30;3.13;;;;;;;;;;5081308;28;20099;-58
2021/01/29 14:47:38;;;;;;;2.28;1.38;;;;;;;;;;5080580;28;20375;-56
2021/01/29 14:50:06;;;;;;;6.40;3.80;;;;;;;;;;5085707;28;20211;-58
2021/01/29 14:52:51;;;;;;;4.27;3.00;;;;;;;;;;5080687;28;20020;-56
2021/01/29 14:55:21;;;;;;;1.08;0.60;;;;;;;;;;5052008;28;20522;-57
2021/01/29 14:57:46;;;;;;;2.85;1.60;;;;;;;;;;5083048;28;20395;-56
2021/01/29 15:00:14;;;;;;;1.02;0.50;;;;;;;;;;5084654;28;20209;-55
2021/01/29 15:02:48;;;;;;;1.65;1.00;;;;;;;;;;5090711;28;20027;-57